PWSweather.com
Personal Weather Stations
Station Observations
KMDSOLOM1
solomons, Solomons, MD 20688

solomonsSolomons, MD 20688

Lat: 38.32, Lon: -76.45

Elevation: 5

Station Type:

http://www.act-us.info/weather

High Low Average
Temperature 69.5°F20.8°C 59.7°F15.4°C 64.7°F18.2°C
Dew Point 63.1°F17.3°C 47.5°F8.6°C 55.5°F13.1°C
Winds 19.0 mph 30.6 kmh Calm Calm 8.0 mph SE12.9 kmh SE
Wind Gusts 28.0 mph45.1 kmh -- 12.0 mph19.3 kmh
Humidity 98% 48% 74%
Pressure 29.79 in1008.8 mb 29.50 in999.0 mb -
Precipitation 0.00 in0.0 mm - -
Hour Temp Dew Point Humidity Winds Wind Gusts Pressure Precip Precip Rate Daily Precip Total
12:00 AM 62.0°F16.7°C 61.1°F16.2°C 97% 16.0 mph E25.7 kmh E 19.0 mph30.6 kmh 29.57 in1001.4 mb 0.00 in0.0 mm 0.00 in0.0 mm 0.00 in0.0 mm
12:05 AM 62.2°F16.8°C 61.1°F16.2°C 96% 17.0 mph E27.4 kmh E 20.0 mph32.2 kmh 29.57 in1001.4 mb 0.00 in0.0 mm 0.00 in0.0 mm 0.00 in0.0 mm
12:10 AM 62.0°F16.7°C 60.9°F16.1°C 96% 18.0 mph E29.0 kmh E 18.0 mph29.0 kmh 29.57 in1001.4 mb 0.00 in0.0 mm 0.00 in0.0 mm 0.00 in0.0 mm
12:15 AM 61.9°F16.6°C 60.8°F16.0°C 96% 14.0 mph E22.5 kmh E 18.0 mph29.0 kmh 29.57 in1001.4 mb 0.00 in0.0 mm 0.00 in0.0 mm 0.00 in0.0 mm
12:20 AM 62.7°F17.1°C 61.8°F16.6°C 97% 16.0 mph E25.7 kmh E 21.0 mph33.8 kmh 29.57 in1001.4 mb 0.00 in0.0 mm 0.00 in0.0 mm 0.00 in0.0 mm
12:25 AM 63.2°F17.3°C 62.3°F16.8°C 97% 14.0 mph E22.5 kmh E 15.0 mph24.1 kmh 29.57 in1001.4 mb 0.00 in0.0 mm 0.00 in0.0 mm 0.00 in0.0 mm
12:30 AM 63.5°F17.5°C 62.3°F16.8°C 96% 19.0 mph E30.6 kmh E 20.0 mph32.2 kmh 29.57 in1001.4 mb 0.00 in0.0 mm 0.00 in0.0 mm 0.00 in0.0 mm
12:35 AM 63.8°F17.7°C 62.6°F17.0°C 96% 16.0 mph E25.7 kmh E 24.0 mph38.6 kmh 29.57 in1001.4 mb 0.00 in0.0 mm 0.00 in0.0 mm 0.00 in0.0 mm
12:40 AM 64.1°F17.8°C 62.9°F17.2°C 96% 15.0 mph E24.1 kmh E 17.0 mph27.4 kmh 29.57 in1001.4 mb 0.00 in0.0 mm 0.00 in0.0 mm 0.00 in0.0 mm
12:45 AM 64.2°F17.9°C 63.0°F17.2°C 96% 18.0 mph E29.0 kmh E 24.0 mph38.6 kmh 29.57 in1001.4 mb 0.00 in0.0 mm 0.00 in0.0 mm 0.00 in0.0 mm
12:50 AM 64.5°F18.1°C 63.0°F17.2°C 95% 15.0 mph E24.1 kmh E 25.0 mph40.2 kmh 29.57 in1001.4 mb 0.00 in0.0 mm 0.00 in0.0 mm 0.00 in0.0 mm
12:55 AM 64.6°F18.1°C 63.1°F17.3°C 95% 15.0 mph E24.1 kmh E 15.0 mph24.1 kmh 29.56 in1001.0 mb 0.00 in0.0 mm 0.00 in0.0 mm 0.00 in0.0 mm
01:00 AM 64.8°F18.2°C 63.0°F17.2°C 94% 14.0 mph ESE22.5 kmh ESE 23.0 mph37.0 kmh 29.56 in1001.0 mb 0.00 in0.0 mm 0.00 in0.0 mm 0.00 in0.0 mm
01:05 AM 64.9°F18.3°C 63.1°F17.3°C 94% 16.0 mph E25.7 kmh E 23.0 mph37.0 kmh 29.56 in1001.0 mb 0.00 in0.0 mm 0.00 in0.0 mm 0.00 in0.0 mm
01:10 AM 64.8°F18.2°C 62.7°F17.1°C 93% 16.0 mph ESE25.7 kmh ESE 17.0 mph27.4 kmh 29.56 in1001.0 mb 0.00 in0.0 mm 0.00 in0.0 mm 0.00 in0.0 mm
01:15 AM 64.7°F18.2°C 62.6°F17.0°C 93% 14.0 mph E22.5 kmh E 20.0 mph32.2 kmh 29.56 in1001.0 mb 0.00 in0.0 mm 0.00 in0.0 mm 0.00 in0.0 mm
01:20 AM 64.5°F18.1°C 62.4°F16.9°C 93% 15.0 mph E24.1 kmh E 20.0 mph32.2 kmh 29.56 in1001.0 mb 0.00 in0.0 mm 0.00 in0.0 mm 0.00 in0.0 mm
01:25 AM 64.5°F18.1°C 62.4°F16.9°C 93% 16.0 mph E25.7 kmh E 16.0 mph25.7 kmh 29.56 in1001.0 mb 0.00 in0.0 mm 0.00 in0.0 mm 0.00 in0.0 mm
01:30 AM 64.4°F18.0°C 62.3°F16.8°C 93% 13.0 mph E20.9 kmh E 18.0 mph29.0 kmh 29.56 in1001.0 mb 0.00 in0.0 mm 0.00 in0.0 mm 0.00 in0.0 mm
01:35 AM 64.4°F18.0°C 62.3°F16.8°C 93% 19.0 mph E30.6 kmh E 19.0 mph30.6 kmh 29.55 in1000.7 mb 0.00 in0.0 mm 0.00 in0.0 mm 0.00 in0.0 mm
01:40 AM 64.3°F17.9°C 62.2°F16.8°C 93% 15.0 mph E24.1 kmh E 16.0 mph25.7 kmh 29.56 in1001.0 mb 0.00 in0.0 mm 0.00 in0.0 mm 0.00 in0.0 mm
01:45 AM 64.4°F18.0°C 62.3°F16.8°C 93% 11.0 mph E17.7 kmh E 17.0 mph27.4 kmh 29.55 in1000.7 mb 0.00 in0.0 mm 0.00 in0.0 mm 0.00 in0.0 mm
01:50 AM 64.2°F17.9°C 62.1°F16.7°C 93% 10.0 mph E16.1 kmh E 17.0 mph27.4 kmh 29.55 in1000.7 mb 0.00 in0.0 mm 0.00 in0.0 mm 0.00 in0.0 mm
01:55 AM 63.9°F17.7°C 61.8°F16.6°C 93% 14.0 mph E22.5 kmh E 14.0 mph22.5 kmh 29.55 in1000.7 mb 0.00 in0.0 mm 0.00 in0.0 mm 0.00 in0.0 mm
02:00 AM 63.9°F17.7°C 62.1°F16.7°C 94% 13.0 mph E20.9 kmh E 15.0 mph24.1 kmh 29.55 in1000.7 mb 0.00 in0.0 mm 0.00 in0.0 mm 0.00 in0.0 mm
02:05 AM 63.8°F17.7°C 62.0°F16.7°C 94% 12.0 mph E19.3 kmh E 15.0 mph24.1 kmh 29.55 in1000.7 mb 0.00 in0.0 mm 0.00 in0.0 mm 0.00 in0.0 mm
02:10 AM 63.7°F17.6°C 62.0°F16.7°C 94% 13.0 mph E20.9 kmh E 14.0 mph22.5 kmh 29.55 in1000.7 mb 0.00 in0.0 mm 0.00 in0.0 mm 0.00 in0.0 mm
02:15 AM 63.6°F17.6°C 61.9°F16.6°C 94% 12.0 mph E19.3 kmh E 14.0 mph22.5 kmh 29.55 in1000.7 mb 0.00 in0.0 mm 0.00 in0.0 mm 0.00 in0.0 mm
02:20 AM 63.3°F17.4°C 61.6°F16.4°C 94% 12.0 mph ENE19.3 kmh ENE 14.0 mph22.5 kmh 29.55 in1000.7 mb 0.00 in0.0 mm 0.00 in0.0 mm 0.00 in0.0 mm
02:25 AM 62.6°F17.0°C 60.6°F15.9°C 93% 11.0 mph ENE17.7 kmh ENE 11.0 mph17.7 kmh 29.55 in1000.7 mb 0.00 in0.0 mm 0.00 in0.0 mm 0.00 in0.0 mm
02:30 AM 62.2°F16.8°C 60.5°F15.8°C 94% 11.0 mph ENE17.7 kmh ENE 14.0 mph22.5 kmh 29.54 in1000.3 mb 0.00 in0.0 mm 0.00 in0.0 mm 0.00 in0.0 mm
02:35 AM 62.3°F16.8°C 60.9°F16.1°C 95% 12.0 mph E19.3 kmh E 14.0 mph22.5 kmh 29.54 in1000.3 mb 0.00 in0.0 mm 0.00 in0.0 mm 0.00 in0.0 mm
02:40 AM 62.9°F17.2°C 61.5°F16.4°C 95% 11.0 mph E17.7 kmh E 13.0 mph20.9 kmh 29.54 in1000.3 mb 0.00 in0.0 mm 0.00 in0.0 mm 0.00 in0.0 mm
02:45 AM 63.3°F17.4°C 61.9°F16.6°C 95% 11.0 mph E17.7 kmh E 14.0 mph22.5 kmh 29.54 in1000.3 mb 0.00 in0.0 mm 0.00 in0.0 mm 0.00 in0.0 mm
02:50 AM 62.9°F17.2°C 61.5°F16.4°C 95% 10.0 mph E16.1 kmh E 14.0 mph22.5 kmh 29.54 in1000.3 mb 0.00 in0.0 mm 0.00 in0.0 mm 0.00 in0.0 mm
02:55 AM 63.3°F17.4°C 62.1°F16.7°C 96% 12.0 mph E19.3 kmh E 12.0 mph19.3 kmh 29.53 in1000.0 mb 0.00 in0.0 mm 0.00 in0.0 mm 0.00 in0.0 mm
03:00 AM 63.3°F17.4°C 61.9°F16.6°C 95% 11.0 mph E17.7 kmh E 13.0 mph20.9 kmh 29.53 in1000.0 mb 0.00 in0.0 mm 0.00 in0.0 mm 0.00 in0.0 mm
03:05 AM 62.5°F16.9°C 60.8°F16.0°C 94% 4.0 mph ENE6.4 kmh ENE 13.0 mph20.9 kmh 29.53 in1000.0 mb 0.00 in0.0 mm 0.00 in0.0 mm 0.00 in0.0 mm
03:10 AM 61.8°F16.6°C 60.4°F15.8°C 95% 6.0 mph ENE9.7 kmh ENE 6.0 mph9.7 kmh 29.52 in999.7 mb 0.00 in0.0 mm 0.00 in0.0 mm 0.00 in0.0 mm
03:15 AM 61.1°F16.2°C 59.4°F15.2°C 94% 10.0 mph NE16.1 kmh NE 10.0 mph16.1 kmh 29.52 in999.7 mb 0.00 in0.0 mm 0.00 in0.0 mm 0.00 in0.0 mm
03:20 AM 60.6°F15.9°C 59.2°F15.1°C 95% 9.0 mph NE14.5 kmh NE 10.0 mph16.1 kmh 29.52 in999.7 mb 0.00 in0.0 mm 0.00 in0.0 mm 0.00 in0.0 mm
03:25 AM 60.6°F15.9°C 59.5°F15.3°C 96% 10.0 mph NE16.1 kmh NE 10.0 mph16.1 kmh 29.51 in999.3 mb 0.00 in0.0 mm 0.00 in0.0 mm 0.00 in0.0 mm
03:30 AM 60.8°F16.0°C 59.7°F15.4°C 96% 10.0 mph NE16.1 kmh NE 13.0 mph20.9 kmh 29.51 in999.3 mb 0.00 in0.0 mm 0.00 in0.0 mm 0.00 in0.0 mm
03:35 AM 61.0°F16.1°C 59.9°F15.5°C 96% 12.0 mph NE19.3 kmh NE 13.0 mph20.9 kmh 29.51 in999.3 mb 0.00 in0.0 mm 0.00 in0.0 mm 0.00 in0.0 mm
03:40 AM 61.3°F16.3°C 60.2°F15.7°C 96% 12.0 mph ENE19.3 kmh ENE 13.0 mph20.9 kmh 29.51 in999.3 mb 0.00 in0.0 mm 0.00 in0.0 mm 0.00 in0.0 mm
03:45 AM 61.3°F16.3°C 60.2°F15.7°C 96% 13.0 mph ENE20.9 kmh ENE 16.0 mph25.7 kmh 29.51 in999.3 mb 0.00 in0.0 mm 0.00 in0.0 mm 0.00 in0.0 mm
03:50 AM 61.1°F16.2°C 60.0°F15.6°C 96% 15.0 mph ENE24.1 kmh ENE 16.0 mph25.7 kmh 29.50 in999.0 mb 0.00 in0.0 mm 0.00 in0.0 mm 0.00 in0.0 mm
03:55 AM 60.9°F16.1°C 59.8°F15.4°C 96% 14.0 mph ENE22.5 kmh ENE 15.0 mph24.1 kmh 29.50 in999.0 mb 0.00 in0.0 mm 0.00 in0.0 mm 0.00 in0.0 mm
04:00 AM 60.9°F16.1°C 59.8°F15.4°C 96% 13.0 mph ENE20.9 kmh ENE 15.0 mph24.1 kmh 29.50 in999.0 mb 0.00 in0.0 mm 0.00 in0.0 mm 0.00 in0.0 mm
04:05 AM 60.9°F16.1°C 59.8°F15.4°C 96% 12.0 mph ENE19.3 kmh ENE 15.0 mph24.1 kmh 29.50 in999.0 mb 0.00 in0.0 mm 0.00 in0.0 mm 0.00 in0.0 mm
04:10 AM 61.0°F16.1°C 59.9°F15.5°C 96% 8.0 mph E12.9 kmh E 8.0 mph12.9 kmh 29.50 in999.0 mb 0.00 in0.0 mm 0.00 in0.0 mm 0.00 in0.0 mm
04:15 AM 60.8°F16.0°C 59.7°F15.4°C 96% 3.0 mph E4.8 kmh E 9.0 mph14.5 kmh 29.50 in999.0 mb 0.00 in0.0 mm 0.00 in0.0 mm 0.00 in0.0 mm
04:20 AM 60.9°F16.1°C 60.1°F15.6°C 97% Calm Calm 9.0 mph14.5 kmh 29.50 in999.0 mb 0.00 in0.0 mm 0.00 in0.0 mm 0.00 in0.0 mm
04:25 AM 61.1°F16.2°C 60.3°F15.7°C 97% 3.0 mph E4.8 kmh E 3.0 mph4.8 kmh 29.50 in999.0 mb 0.00 in0.0 mm 0.00 in0.0 mm 0.00 in0.0 mm
04:30 AM 61.1°F16.2°C 60.3°F15.7°C 97% 5.0 mph ENE8.0 kmh ENE 8.0 mph12.9 kmh 29.50 in999.0 mb 0.00 in0.0 mm 0.00 in0.0 mm 0.00 in0.0 mm
04:35 AM 60.8°F16.0°C 60.0°F15.6°C 97% 7.0 mph NE11.3 kmh NE 9.0 mph14.5 kmh 29.50 in999.0 mb 0.00 in0.0 mm 0.00 in0.0 mm 0.00 in0.0 mm
04:40 AM 60.9°F16.1°C 60.1°F15.6°C 97% 9.0 mph NE14.5 kmh NE 9.0 mph14.5 kmh 29.50 in999.0 mb 0.00 in0.0 mm 0.00 in0.0 mm 0.00 in0.0 mm
04:45 AM 61.9°F16.6°C 61.0°F16.1°C 97% 14.0 mph N22.5 kmh N 15.0 mph24.1 kmh 29.50 in999.0 mb 0.00 in0.0 mm 0.00 in0.0 mm 0.00 in0.0 mm
04:50 AM 62.3°F16.8°C 61.4°F16.3°C 97% 12.0 mph E19.3 kmh E 15.0 mph24.1 kmh 29.50 in999.0 mb 0.00 in0.0 mm 0.00 in0.0 mm 0.00 in0.0 mm
04:55 AM 62.8°F17.1°C 62.2°F16.8°C 98% 14.0 mph E22.5 kmh E 14.0 mph22.5 kmh 29.51 in999.3 mb 0.00 in0.0 mm 0.00 in0.0 mm 0.00 in0.0 mm
05:00 AM 63.0°F17.2°C 62.1°F16.7°C 97% 9.0 mph E14.5 kmh E 14.0 mph22.5 kmh 29.51 in999.3 mb 0.00 in0.0 mm 0.00 in0.0 mm 0.00 in0.0 mm
05:05 AM 63.2°F17.3°C 62.3°F16.8°C 97% 13.0 mph E20.9 kmh E 14.0 mph22.5 kmh 29.51 in999.3 mb 0.00 in0.0 mm 0.00 in0.0 mm 0.00 in0.0 mm
05:10 AM 63.3°F17.4°C 62.4°F16.9°C 97% 11.0 mph E17.7 kmh E 11.0 mph17.7 kmh 29.51 in999.3 mb 0.00 in0.0 mm 0.00 in0.0 mm 0.00 in0.0 mm
05:15 AM 63.3°F17.4°C 62.4°F16.9°C 97% 13.0 mph E20.9 kmh E 14.0 mph22.5 kmh 29.51 in999.3 mb 0.00 in0.0 mm 0.00 in0.0 mm 0.00 in0.0 mm
05:20 AM 63.4°F17.4°C 62.5°F16.9°C 97% 13.0 mph ESE20.9 kmh ESE 14.0 mph22.5 kmh 29.51 in999.3 mb 0.00 in0.0 mm 0.00 in0.0 mm 0.00 in0.0 mm
05:25 AM 63.7°F17.6°C 62.8°F17.1°C 97% 11.0 mph E17.7 kmh E 11.0 mph17.7 kmh 29.52 in999.7 mb 0.00 in0.0 mm 0.00 in0.0 mm 0.00 in0.0 mm
05:30 AM 63.6°F17.6°C 62.7°F17.1°C 97% 13.0 mph E20.9 kmh E 15.0 mph24.1 kmh 29.52 in999.7 mb 0.00 in0.0 mm 0.00 in0.0 mm 0.00 in0.0 mm
05:35 AM 63.8°F17.7°C 62.9°F17.2°C 97% 13.0 mph E20.9 kmh E 15.0 mph24.1 kmh 29.52 in999.7 mb 0.00 in0.0 mm 0.00 in0.0 mm 0.00 in0.0 mm
05:40 AM 63.8°F17.7°C 62.9°F17.2°C 97% 10.0 mph E16.1 kmh E 11.0 mph17.7 kmh 29.52 in999.7 mb 0.00 in0.0 mm 0.00 in0.0 mm 0.00 in0.0 mm
05:45 AM 63.9°F17.7°C 63.0°F17.2°C 97% 10.0 mph E16.1 kmh E 13.0 mph20.9 kmh 29.51 in999.3 mb 0.00 in0.0 mm 0.00 in0.0 mm 0.00 in0.0 mm
05:50 AM 63.9°F17.7°C 63.0°F17.2°C 97% 11.0 mph E17.7 kmh E 13.0 mph20.9 kmh 29.51 in999.3 mb 0.00 in0.0 mm 0.00 in0.0 mm 0.00 in0.0 mm
05:55 AM 63.8°F17.7°C 62.9°F17.2°C 97% 11.0 mph E17.7 kmh E 11.0 mph17.7 kmh 29.51 in999.3 mb 0.00 in0.0 mm 0.00 in0.0 mm 0.00 in0.0 mm
06:00 AM 63.9°F17.7°C 63.0°F17.2°C 97% 14.0 mph E22.5 kmh E 15.0 mph24.1 kmh 29.52 in999.7 mb 0.00 in0.0 mm 0.00 in0.0 mm 0.00 in0.0 mm
06:05 AM 63.2°F17.3°C 62.0°F16.7°C 96% 9.0 mph E14.5 kmh E 16.0 mph25.7 kmh 29.52 in999.7 mb 0.00 in0.0 mm 0.00 in0.0 mm 0.00 in0.0 mm
06:10 AM 62.4°F16.9°C 61.3°F16.3°C 96% 10.0 mph E16.1 kmh E 10.0 mph16.1 kmh 29.52 in999.7 mb 0.00 in0.0 mm 0.00 in0.0 mm 0.00 in0.0 mm
06:15 AM 62.2°F16.8°C 61.1°F16.2°C 96% 15.0 mph ENE24.1 kmh ENE 16.0 mph25.7 kmh 29.53 in1000.0 mb 0.00 in0.0 mm 0.00 in0.0 mm 0.00 in0.0 mm
06:20 AM 62.2°F16.8°C 61.3°F16.3°C 97% 14.0 mph E22.5 kmh E 17.0 mph27.4 kmh 29.53 in1000.0 mb 0.00 in0.0 mm 0.00 in0.0 mm 0.00 in0.0 mm
06:25 AM 62.2°F16.8°C 61.3°F16.3°C 97% 11.0 mph E17.7 kmh E 14.0 mph22.5 kmh 29.53 in1000.0 mb 0.00 in0.0 mm 0.00 in0.0 mm 0.00 in0.0 mm
06:30 AM 62.5°F16.9°C 61.6°F16.4°C 97% 11.0 mph E17.7 kmh E 14.0 mph22.5 kmh 29.53 in1000.0 mb 0.00 in0.0 mm 0.00 in0.0 mm 0.00 in0.0 mm
06:35 AM 63.0°F17.2°C 62.1°F16.7°C 97% 10.0 mph E16.1 kmh E 14.0 mph22.5 kmh 29.53 in1000.0 mb 0.00 in0.0 mm 0.00 in0.0 mm 0.00 in0.0 mm
06:40 AM 63.2°F17.3°C 62.3°F16.8°C 97% 14.0 mph E22.5 kmh E 15.0 mph24.1 kmh 29.53 in1000.0 mb 0.00 in0.0 mm 0.00 in0.0 mm 0.00 in0.0 mm
06:45 AM 63.6°F17.6°C 62.7°F17.1°C 97% 13.0 mph E20.9 kmh E 17.0 mph27.4 kmh 29.54 in1000.3 mb 0.00 in0.0 mm 0.00 in0.0 mm 0.00 in0.0 mm
06:50 AM 63.7°F17.6°C 62.8°F17.1°C 97% 11.0 mph ESE17.7 kmh ESE 17.0 mph27.4 kmh 29.54 in1000.3 mb 0.00 in0.0 mm 0.00 in0.0 mm 0.00 in0.0 mm
06:55 AM 63.6°F17.6°C 62.7°F17.1°C 97% 11.0 mph ESE17.7 kmh ESE 12.0 mph19.3 kmh 29.54 in1000.3 mb 0.00 in0.0 mm 0.00 in0.0 mm 0.00 in0.0 mm
07:00 AM 63.8°F17.7°C 62.9°F17.2°C 97% 11.0 mph ESE17.7 kmh ESE 17.0 mph27.4 kmh 29.53 in1000.0 mb 0.00 in0.0 mm 0.00 in0.0 mm 0.00 in0.0 mm
07:05 AM 63.7°F17.6°C 62.8°F17.1°C 97% 14.0 mph ESE22.5 kmh ESE 17.0 mph27.4 kmh 29.53 in1000.0 mb 0.00 in0.0 mm 0.00 in0.0 mm 0.00 in0.0 mm
07:10 AM 63.9°F17.7°C 62.7°F17.1°C 96% 14.0 mph E22.5 kmh E 14.0 mph22.5 kmh 29.53 in1000.0 mb 0.00 in0.0 mm 0.00 in0.0 mm 0.00 in0.0 mm
07:15 AM 64.1°F17.8°C 62.9°F17.2°C 96% 18.0 mph E29.0 kmh E 18.0 mph29.0 kmh 29.53 in1000.0 mb 0.00 in0.0 mm 0.00 in0.0 mm 0.00 in0.0 mm
07:20 AM 64.0°F17.8°C 62.5°F16.9°C 95% 12.0 mph ESE19.3 kmh ESE 20.0 mph32.2 kmh 29.53 in1000.0 mb 0.00 in0.0 mm 0.00 in0.0 mm 0.00 in0.0 mm
07:25 AM 64.0°F17.8°C 62.5°F16.9°C 95% 13.0 mph ESE20.9 kmh ESE 14.0 mph22.5 kmh 29.53 in1000.0 mb 0.00 in0.0 mm 0.00 in0.0 mm 0.00 in0.0 mm
07:30 AM 64.3°F17.9°C 62.5°F16.9°C 94% 14.0 mph ESE22.5 kmh ESE 18.0 mph29.0 kmh 29.53 in1000.0 mb 0.01 in0.3 mm 0.12 in3.0 mm 0.01 in0.3 mm
07:35 AM 64.0°F17.8°C 62.2°F16.8°C 94% 9.0 mph ESE14.5 kmh ESE 18.0 mph29.0 kmh 29.53 in1000.0 mb 0.01 in0.3 mm 0.00 in0.0 mm 0.01 in0.3 mm
07:40 AM 64.1°F17.8°C 62.3°F16.8°C 94% 8.0 mph ESE12.9 kmh ESE 9.0 mph14.5 kmh 29.54 in1000.3 mb 0.01 in0.3 mm 0.00 in0.0 mm 0.01 in0.3 mm
07:45 AM 64.1°F17.8°C 62.3°F16.8°C 94% 12.0 mph ESE19.3 kmh ESE 15.0 mph24.1 kmh 29.54 in1000.3 mb 0.01 in0.3 mm 0.00 in0.0 mm 0.01 in0.3 mm
07:50 AM 64.1°F17.8°C 62.3°F16.8°C 94% 15.0 mph ESE24.1 kmh ESE 18.0 mph29.0 kmh 29.54 in1000.3 mb 0.01 in0.3 mm 0.00 in0.0 mm 0.01 in0.3 mm
07:55 AM 64.3°F17.9°C 62.5°F16.9°C 94% 3.0 mph ESE4.8 kmh ESE 6.0 mph9.7 kmh 29.54 in1000.3 mb 0.01 in0.3 mm 0.00 in0.0 mm 0.01 in0.3 mm
08:00 AM 64.1°F17.8°C 62.3°F16.8°C 94% 5.0 mph SE8.0 kmh SE 11.0 mph17.7 kmh 29.55 in1000.7 mb 0.01 in0.3 mm 0.00 in0.0 mm 0.01 in0.3 mm
08:05 AM 64.3°F17.9°C 62.5°F16.9°C 94% 11.0 mph SE17.7 kmh SE 14.0 mph22.5 kmh 29.55 in1000.7 mb 0.01 in0.3 mm 0.00 in0.0 mm 0.01 in0.3 mm
08:10 AM 64.2°F17.9°C 62.4°F16.9°C 94% 4.0 mph ESE6.4 kmh ESE 9.0 mph14.5 kmh 29.55 in1000.7 mb 0.01 in0.3 mm 0.00 in0.0 mm 0.01 in0.3 mm
08:15 AM 64.3°F17.9°C 62.5°F16.9°C 94% 3.0 mph ESE4.8 kmh ESE 9.0 mph14.5 kmh 29.56 in1001.0 mb 0.01 in0.3 mm 0.00 in0.0 mm 0.01 in0.3 mm
08:20 AM 64.8°F18.2°C 63.0°F17.2°C 94% 4.0 mph ESE6.4 kmh ESE 11.0 mph17.7 kmh 29.56 in1001.0 mb 0.01 in0.3 mm 0.00 in0.0 mm 0.01 in0.3 mm
08:25 AM 64.7°F18.2°C 62.9°F17.2°C 94% 2.0 mph ESE3.2 kmh ESE 4.0 mph6.4 kmh 29.56 in1001.0 mb 0.01 in0.3 mm 0.00 in0.0 mm 0.01 in0.3 mm
08:30 AM 64.8°F18.2°C 62.7°F17.1°C 93% 6.0 mph ESE9.7 kmh ESE 10.0 mph16.1 kmh 29.56 in1001.0 mb 0.01 in0.3 mm 0.00 in0.0 mm 0.01 in0.3 mm
08:35 AM 64.7°F18.2°C 62.6°F17.0°C 93% 4.0 mph ESE6.4 kmh ESE 10.0 mph16.1 kmh 29.56 in1001.0 mb 0.01 in0.3 mm 0.00 in0.0 mm 0.01 in0.3 mm
08:40 AM 64.4°F18.0°C 62.3°F16.8°C 93% 7.0 mph SE11.3 kmh SE 7.0 mph11.3 kmh 29.57 in1001.4 mb 0.00 in0.0 mm 0.00 in0.0 mm 0.01 in0.3 mm
08:45 AM 64.3°F17.9°C 62.2°F16.8°C 93% 4.0 mph SE6.4 kmh SE 7.0 mph11.3 kmh 29.57 in1001.4 mb 0.00 in0.0 mm 0.00 in0.0 mm 0.01 in0.3 mm
08:50 AM 64.7°F18.2°C 62.6°F17.0°C 93% 3.0 mph SE4.8 kmh SE 8.0 mph12.9 kmh 29.57 in1001.4 mb 0.00 in0.0 mm 0.00 in0.0 mm 0.01 in0.3 mm
08:55 AM 65.2°F18.4°C 62.8°F17.1°C 92% 3.0 mph SE4.8 kmh SE 3.0 mph4.8 kmh 29.58 in1001.7 mb 0.00 in0.0 mm 0.00 in0.0 mm 0.01 in0.3 mm
09:00 AM 65.6°F18.7°C 62.3°F16.8°C 89% 8.0 mph SE12.9 kmh SE 11.0 mph17.7 kmh 29.58 in1001.7 mb 0.00 in0.0 mm 0.00 in0.0 mm 0.01 in0.3 mm
09:05 AM 66.1°F18.9°C 61.1°F16.2°C 84% 5.0 mph SE8.0 kmh SE 12.0 mph19.3 kmh 29.59 in1002.0 mb 0.00 in0.0 mm 0.00 in0.0 mm 0.01 in0.3 mm
09:10 AM 66.0°F18.9°C 59.3°F15.2°C 79% 4.0 mph SSE6.4 kmh SSE 4.0 mph6.4 kmh 29.59 in1002.0 mb 0.00 in0.0 mm 0.00 in0.0 mm 0.01 in0.3 mm
09:15 AM 66.0°F18.9°C 59.3°F15.2°C 79% 10.0 mph S16.1 kmh S 11.0 mph17.7 kmh 29.59 in1002.0 mb 0.00 in0.0 mm 0.00 in0.0 mm 0.01 in0.3 mm
09:20 AM 65.9°F18.8°C 59.2°F15.1°C 79% 4.0 mph SE6.4 kmh SE 11.0 mph17.7 kmh 29.60 in1002.4 mb 0.00 in0.0 mm 0.00 in0.0 mm 0.01 in0.3 mm
09:25 AM 65.8°F18.8°C 59.1°F15.1°C 79% 2.0 mph SE3.2 kmh SE 2.0 mph3.2 kmh 29.59 in1002.0 mb 0.00 in0.0 mm 0.00 in0.0 mm 0.01 in0.3 mm
09:30 AM 65.6°F18.7°C 58.9°F14.9°C 79% 2.0 mph SE3.2 kmh SE 8.0 mph12.9 kmh 29.60 in1002.4 mb 0.00 in0.0 mm 0.00 in0.0 mm 0.01 in0.3 mm
09:35 AM 65.1°F18.4°C 58.8°F14.9°C 80% 3.0 mph SE4.8 kmh SE 8.0 mph12.9 kmh 29.60 in1002.4 mb 0.00 in0.0 mm 0.00 in0.0 mm 0.01 in0.3 mm
09:40 AM 65.1°F18.4°C 58.8°F14.9°C 80% 2.0 mph SE3.2 kmh SE 3.0 mph4.8 kmh 29.60 in1002.4 mb 0.00 in0.0 mm 0.00 in0.0 mm 0.01 in0.3 mm
09:45 AM 64.9°F18.3°C 58.6°F14.8°C 80% 5.0 mph SE8.0 kmh SE 10.0 mph16.1 kmh 29.61 in1002.7 mb 0.00 in0.0 mm 0.00 in0.0 mm 0.01 in0.3 mm
09:50 AM 65.0°F18.3°C 59.0°F15.0°C 81% 2.0 mph SE3.2 kmh SE 10.0 mph16.1 kmh 29.61 in1002.7 mb 0.00 in0.0 mm 0.00 in0.0 mm 0.01 in0.3 mm
09:55 AM 65.1°F18.4°C 59.1°F15.1°C 81% 2.0 mph SE3.2 kmh SE 2.0 mph3.2 kmh 29.62 in1003.0 mb 0.00 in0.0 mm 0.00 in0.0 mm 0.01 in0.3 mm
10:00 AM 65.0°F18.3°C 59.4°F15.2°C 82% 7.0 mph ESE11.3 kmh ESE 10.0 mph16.1 kmh 29.62 in1003.0 mb 0.00 in0.0 mm 0.00 in0.0 mm 0.01 in0.3 mm
10:05 AM 65.5°F18.6°C 59.5°F15.3°C 81% 4.0 mph SE6.4 kmh SE 14.0 mph22.5 kmh 29.62 in1003.0 mb 0.00 in0.0 mm 0.00 in0.0 mm 0.01 in0.3 mm
10:10 AM 65.5°F18.6°C 59.5°F15.3°C 81% 9.0 mph ESE14.5 kmh ESE 9.0 mph14.5 kmh 29.62 in1003.0 mb 0.00 in0.0 mm 0.00 in0.0 mm 0.01 in0.3 mm
10:15 AM 65.4°F18.6°C 59.1°F15.1°C 80% 9.0 mph SSE14.5 kmh SSE 15.0 mph24.1 kmh 29.62 in1003.0 mb 0.00 in0.0 mm 0.00 in0.0 mm 0.01 in0.3 mm
10:20 AM 65.7°F18.7°C 58.7°F14.8°C 78% 11.0 mph SSE17.7 kmh SSE 18.0 mph29.0 kmh 29.62 in1003.0 mb 0.00 in0.0 mm 0.00 in0.0 mm 0.01 in0.3 mm
10:25 AM 66.4°F19.1°C 58.6°F14.8°C 76% 11.0 mph SE17.7 kmh SE 11.0 mph17.7 kmh 29.62 in1003.0 mb 0.00 in0.0 mm 0.00 in0.0 mm 0.01 in0.3 mm
10:30 AM 66.2°F19.0°C 59.2°F15.1°C 78% 8.0 mph ESE12.9 kmh ESE 12.0 mph19.3 kmh 29.61 in1002.7 mb 0.00 in0.0 mm 0.00 in0.0 mm 0.01 in0.3 mm
10:35 AM 65.8°F18.8°C 58.0°F14.4°C 76% 13.0 mph ESE20.9 kmh ESE 14.0 mph22.5 kmh 29.62 in1003.0 mb 0.00 in0.0 mm 0.00 in0.0 mm 0.01 in0.3 mm
10:40 AM 65.2°F18.4°C 56.3°F13.5°C 73% 5.0 mph SE8.0 kmh SE 5.0 mph8.0 kmh 29.62 in1003.0 mb 0.00 in0.0 mm 0.00 in0.0 mm 0.01 in0.3 mm
10:45 AM 65.4°F18.6°C 56.2°F13.4°C 72% 6.0 mph ESE9.7 kmh ESE 16.0 mph25.7 kmh 29.62 in1003.0 mb 0.00 in0.0 mm 0.00 in0.0 mm 0.01 in0.3 mm
10:50 AM 66.0°F18.9°C 54.3°F12.4°C 66% 11.0 mph SSE17.7 kmh SSE 16.0 mph25.7 kmh 29.62 in1003.0 mb 0.00 in0.0 mm 0.00 in0.0 mm 0.01 in0.3 mm
10:55 AM 66.5°F19.2°C 54.0°F12.2°C 64% 9.0 mph SSE14.5 kmh SSE 11.0 mph17.7 kmh 29.62 in1003.0 mb 0.00 in0.0 mm 0.00 in0.0 mm 0.01 in0.3 mm
11:00 AM 66.5°F19.2°C 54.0°F12.2°C 64% 9.0 mph SE14.5 kmh SE 15.0 mph24.1 kmh 29.62 in1003.0 mb 0.00 in0.0 mm 0.00 in0.0 mm 0.01 in0.3 mm
11:05 AM 66.5°F19.2°C 55.2°F12.9°C 67% 7.0 mph ESE11.3 kmh ESE 17.0 mph27.4 kmh 29.62 in1003.0 mb 0.00 in0.0 mm 0.00 in0.0 mm 0.01 in0.3 mm
11:10 AM 66.3°F19.1°C 55.0°F12.8°C 67% 8.0 mph SSE12.9 kmh SSE 8.0 mph12.9 kmh 29.62 in1003.0 mb 0.00 in0.0 mm 0.00 in0.0 mm 0.01 in0.3 mm
11:15 AM 66.4°F19.1°C 54.7°F12.6°C 66% 9.0 mph SE14.5 kmh SE 14.0 mph22.5 kmh 29.62 in1003.0 mb 0.00 in0.0 mm 0.00 in0.0 mm 0.01 in0.3 mm
11:20 AM 66.3°F19.1°C 55.8°F13.2°C 69% 9.0 mph ESE14.5 kmh ESE 19.0 mph30.6 kmh 29.62 in1003.0 mb 0.00 in0.0 mm 0.00 in0.0 mm 0.01 in0.3 mm
11:25 AM 65.7°F18.7°C 54.5°F12.5°C 67% 14.0 mph SE22.5 kmh SE 15.0 mph24.1 kmh 29.62 in1003.0 mb 0.00 in0.0 mm 0.00 in0.0 mm 0.01 in0.3 mm
11:30 AM 65.7°F18.7°C 54.9°F12.7°C 68% 9.0 mph S14.5 kmh S 22.0 mph35.4 kmh 29.62 in1003.0 mb 0.00 in0.0 mm 0.00 in0.0 mm 0.01 in0.3 mm
11:35 AM 66.4°F19.1°C 53.4°F11.9°C 63% 19.0 mph ESE30.6 kmh ESE 22.0 mph35.4 kmh 29.62 in1003.0 mb 0.00 in0.0 mm 0.00 in0.0 mm 0.01 in0.3 mm
11:40 AM 66.5°F19.2°C 54.4°F12.4°C 65% 8.0 mph SE12.9 kmh SE 10.0 mph16.1 kmh 29.62 in1003.0 mb 0.00 in0.0 mm 0.00 in0.0 mm 0.01 in0.3 mm
11:45 AM 66.0°F18.9°C 53.5°F11.9°C 64% 15.0 mph ESE24.1 kmh ESE 23.0 mph37.0 kmh 29.63 in1003.4 mb 0.00 in0.0 mm 0.00 in0.0 mm 0.01 in0.3 mm
11:50 AM 65.8°F18.8°C 53.3°F11.8°C 64% 9.0 mph SE14.5 kmh SE 23.0 mph37.0 kmh 29.62 in1003.0 mb 0.00 in0.0 mm 0.00 in0.0 mm 0.01 in0.3 mm
11:55 AM 66.5°F19.2°C 53.1°F11.7°C 62% 10.0 mph SE16.1 kmh SE 13.0 mph20.9 kmh 29.62 in1003.0 mb 0.00 in0.0 mm 0.00 in0.0 mm 0.01 in0.3 mm
12:00 PM 66.8°F19.3°C 53.4°F11.9°C 62% 12.0 mph ESE19.3 kmh ESE 18.0 mph29.0 kmh 29.63 in1003.4 mb 0.00 in0.0 mm 0.00 in0.0 mm 0.01 in0.3 mm
12:05 PM 66.5°F19.2°C 54.4°F12.4°C 65% 9.0 mph SE14.5 kmh SE 18.0 mph29.0 kmh 29.62 in1003.0 mb 0.00 in0.0 mm 0.00 in0.0 mm 0.01 in0.3 mm
12:10 PM 67.5°F19.7°C 53.1°F11.7°C 60% 10.0 mph SE16.1 kmh SE 10.0 mph16.1 kmh 29.63 in1003.4 mb 0.00 in0.0 mm 0.00 in0.0 mm 0.01 in0.3 mm
12:15 PM 67.6°F19.8°C 52.8°F11.6°C 59% 7.0 mph ESE11.3 kmh ESE 18.0 mph29.0 kmh 29.63 in1003.4 mb 0.00 in0.0 mm 0.00 in0.0 mm 0.01 in0.3 mm
12:20 PM 68.1°F20.1°C 53.7°F12.1°C 60% 8.0 mph SE12.9 kmh SE 18.0 mph29.0 kmh 29.63 in1003.4 mb 0.00 in0.0 mm 0.00 in0.0 mm 0.01 in0.3 mm
12:25 PM 67.4°F19.7°C 52.6°F11.4°C 59% 7.0 mph SE11.3 kmh SE 7.0 mph11.3 kmh 29.63 in1003.4 mb 0.00 in0.0 mm 0.00 in0.0 mm 0.01 in0.3 mm
12:30 PM 67.2°F19.6°C 54.2°F12.3°C 63% 12.0 mph SE19.3 kmh SE 16.0 mph25.7 kmh 29.63 in1003.4 mb 0.00 in0.0 mm 0.00 in0.0 mm 0.01 in0.3 mm
12:35 PM 67.6°F19.8°C 53.7°F12.1°C 61% 6.0 mph ESE9.7 kmh ESE 18.0 mph29.0 kmh 29.63 in1003.4 mb 0.00 in0.0 mm 0.00 in0.0 mm 0.01 in0.3 mm
12:40 PM 67.0°F19.4°C 53.1°F11.7°C 61% 8.0 mph ESE12.9 kmh ESE 8.0 mph12.9 kmh 29.63 in1003.4 mb 0.00 in0.0 mm 0.00 in0.0 mm 0.01 in0.3 mm
12:45 PM 67.7°F19.8°C 53.8°F12.1°C 61% 5.0 mph SE8.0 kmh SE 15.0 mph24.1 kmh 29.63 in1003.4 mb 0.00 in0.0 mm 0.00 in0.0 mm 0.01 in0.3 mm
12:50 PM 67.7°F19.8°C 54.2°F12.3°C 62% 3.0 mph SE4.8 kmh SE 17.0 mph27.4 kmh 29.63 in1003.4 mb 0.00 in0.0 mm 0.00 in0.0 mm 0.01 in0.3 mm
12:55 PM 68.0°F20.0°C 52.7°F11.5°C 58% 8.0 mph SE12.9 kmh SE 8.0 mph12.9 kmh 29.63 in1003.4 mb 0.00 in0.0 mm 0.00 in0.0 mm 0.01 in0.3 mm
01:00 PM 68.6°F20.3°C 53.3°F11.8°C 58% 5.0 mph SSE8.0 kmh SSE 16.0 mph25.7 kmh 29.63 in1003.4 mb 0.00 in0.0 mm 0.00 in0.0 mm 0.01 in0.3 mm
01:05 PM 68.3°F20.2°C 53.4°F11.9°C 59% 8.0 mph SE12.9 kmh SE 16.0 mph25.7 kmh 29.63 in1003.4 mb 0.00 in0.0 mm 0.00 in0.0 mm 0.01 in0.3 mm
01:10 PM 68.0°F20.0°C 53.2°F11.8°C 59% 8.0 mph SE12.9 kmh SE 8.0 mph12.9 kmh 29.63 in1003.4 mb 0.00 in0.0 mm 0.00 in0.0 mm 0.01 in0.3 mm
01:15 PM 67.5°F19.7°C 51.3°F10.7°C 56% 3.0 mph SSE4.8 kmh SSE 16.0 mph25.7 kmh 29.62 in1003.0 mb 0.00 in0.0 mm 0.00 in0.0 mm 0.01 in0.3 mm
01:20 PM 67.8°F19.9°C 53.9°F12.2°C 61% 8.0 mph ESE12.9 kmh ESE 16.0 mph25.7 kmh 29.62 in1003.0 mb 0.00 in0.0 mm 0.00 in0.0 mm 0.01 in0.3 mm
01:25 PM 68.2°F20.1°C 53.3°F11.8°C 59% 9.0 mph SE14.5 kmh SE 11.0 mph17.7 kmh 29.63 in1003.4 mb 0.00 in0.0 mm 0.00 in0.0 mm 0.01 in0.3 mm
01:30 PM 67.4°F19.7°C 53.1°F11.7°C 60% 15.0 mph ESE24.1 kmh ESE 16.0 mph25.7 kmh 29.62 in1003.0 mb 0.00 in0.0 mm 0.00 in0.0 mm 0.01 in0.3 mm
01:35 PM 67.4°F19.7°C 53.5°F11.9°C 61% 10.0 mph E16.1 kmh E 18.0 mph29.0 kmh 29.62 in1003.0 mb 0.00 in0.0 mm 0.00 in0.0 mm 0.01 in0.3 mm
01:40 PM 67.4°F19.7°C 52.6°F11.4°C 59% 8.0 mph ESE12.9 kmh ESE 12.0 mph19.3 kmh 29.62 in1003.0 mb 0.00 in0.0 mm 0.00 in0.0 mm 0.01 in0.3 mm
01:45 PM 67.8°F19.9°C 53.0°F11.7°C 59% 10.0 mph SE16.1 kmh SE 17.0 mph27.4 kmh 29.62 in1003.0 mb 0.00 in0.0 mm 0.00 in0.0 mm 0.01 in0.3 mm
01:50 PM 68.8°F20.4°C 53.0°F11.7°C 57% 8.0 mph ESE12.9 kmh ESE 17.0 mph27.4 kmh 29.62 in1003.0 mb 0.00 in0.0 mm 0.00 in0.0 mm 0.01 in0.3 mm
01:55 PM 68.1°F20.1°C 52.3°F11.3°C 57% 6.0 mph SE9.7 kmh SE 6.0 mph9.7 kmh 29.61 in1002.7 mb 0.00 in0.0 mm 0.00 in0.0 mm 0.01 in0.3 mm
02:00 PM 68.0°F20.0°C 50.8°F10.4°C 54% 9.0 mph ESE14.5 kmh ESE 19.0 mph30.6 kmh 29.61 in1002.7 mb 0.00 in0.0 mm 0.00 in0.0 mm 0.01 in0.3 mm
02:05 PM 67.6°F19.8°C 51.8°F11.0°C 57% 8.0 mph SE12.9 kmh SE 19.0 mph30.6 kmh 29.61 in1002.7 mb 0.00 in0.0 mm 0.00 in0.0 mm 0.01 in0.3 mm
02:10 PM 67.5°F19.7°C 50.8°F10.4°C 55% 14.0 mph ESE22.5 kmh ESE 14.0 mph22.5 kmh 29.61 in1002.7 mb 0.00 in0.0 mm 0.00 in0.0 mm 0.01 in0.3 mm
02:15 PM 67.4°F19.7°C 49.2°F9.6°C 52% 16.0 mph ESE25.7 kmh ESE 21.0 mph33.8 kmh 29.61 in1002.7 mb 0.00 in0.0 mm 0.00 in0.0 mm 0.01 in0.3 mm
02:20 PM 67.4°F19.7°C 51.2°F10.7°C 56% 8.0 mph ESE12.9 kmh ESE 25.0 mph40.2 kmh 29.61 in1002.7 mb 0.00 in0.0 mm 0.00 in0.0 mm 0.01 in0.3 mm
02:25 PM 67.9°F19.9°C 50.7°F10.4°C 54% 5.0 mph SE8.0 kmh SE 5.0 mph8.0 kmh 29.61 in1002.7 mb 0.00 in0.0 mm 0.00 in0.0 mm 0.01 in0.3 mm
02:30 PM 67.9°F19.9°C 51.2°F10.7°C 55% 13.0 mph SE20.9 kmh SE 18.0 mph29.0 kmh 29.61 in1002.7 mb 0.00 in0.0 mm 0.00 in0.0 mm 0.01 in0.3 mm
02:35 PM 68.0°F20.0°C 49.7°F9.8°C 52% 14.0 mph SE22.5 kmh SE 18.0 mph29.0 kmh 29.61 in1002.7 mb 0.00 in0.0 mm 0.00 in0.0 mm 0.01 in0.3 mm
02:40 PM 67.8°F19.9°C 51.1°F10.6°C 55% 7.0 mph SE11.3 kmh SE 8.0 mph12.9 kmh 29.61 in1002.7 mb 0.00 in0.0 mm 0.00 in0.0 mm 0.01 in0.3 mm
02:45 PM 68.4°F20.2°C 50.6°F10.3°C 53% 10.0 mph ESE16.1 kmh ESE 23.0 mph37.0 kmh 29.62 in1003.0 mb 0.00 in0.0 mm 0.00 in0.0 mm 0.01 in0.3 mm
02:50 PM 68.6°F20.3°C 50.8°F10.4°C 53% 9.0 mph SE14.5 kmh SE 23.0 mph37.0 kmh 29.62 in1003.0 mb 0.00 in0.0 mm 0.00 in0.0 mm 0.01 in0.3 mm
02:55 PM 68.9°F20.5°C 51.6°F10.9°C 54% 11.0 mph SE17.7 kmh SE 11.0 mph17.7 kmh 29.61 in1002.7 mb 0.00 in0.0 mm 0.00 in0.0 mm 0.01 in0.3 mm
03:00 PM 69.5°F20.8°C 51.1°F10.6°C 52% 8.0 mph SE12.9 kmh SE 14.0 mph22.5 kmh 29.61 in1002.7 mb 0.00 in0.0 mm 0.00 in0.0 mm 0.01 in0.3 mm
03:05 PM 67.6°F19.8°C 52.3°F11.3°C 58% 8.0 mph ESE12.9 kmh ESE 14.0 mph22.5 kmh 29.61 in1002.7 mb 0.00 in0.0 mm 0.00 in0.0 mm 0.01 in0.3 mm
03:10 PM 68.8°F20.4°C 51.5°F10.8°C 54% 4.0 mph SE6.4 kmh SE 7.0 mph11.3 kmh 29.61 in1002.7 mb 0.00 in0.0 mm 0.00 in0.0 mm 0.01 in0.3 mm
03:15 PM 68.7°F20.4°C 51.4°F10.8°C 54% 12.0 mph SE19.3 kmh SE 19.0 mph30.6 kmh 29.61 in1002.7 mb 0.00 in0.0 mm 0.00 in0.0 mm 0.01 in0.3 mm
03:20 PM 68.4°F20.2°C 52.1°F11.2°C 56% 3.0 mph SE4.8 kmh SE 19.0 mph30.6 kmh 29.62 in1003.0 mb 0.00 in0.0 mm 0.00 in0.0 mm 0.01 in0.3 mm
03:25 PM 68.3°F20.2°C 52.0°F11.1°C 56% 17.0 mph ESE27.4 kmh ESE 17.0 mph27.4 kmh 29.62 in1003.0 mb 0.00 in0.0 mm 0.00 in0.0 mm 0.01 in0.3 mm
03:30 PM 67.9°F19.9°C 51.6°F10.9°C 56% 17.0 mph ESE27.4 kmh ESE 28.0 mph45.1 kmh 29.62 in1003.0 mb 0.00 in0.0 mm 0.00 in0.0 mm 0.01 in0.3 mm
03:35 PM 68.8°F20.4°C 51.5°F10.8°C 54% 8.0 mph ESE12.9 kmh ESE 28.0 mph45.1 kmh 29.62 in1003.0 mb 0.00 in0.0 mm 0.00 in0.0 mm 0.01 in0.3 mm
03:40 PM 67.8°F19.9°C 52.0°F11.1°C 57% 14.0 mph ESE22.5 kmh ESE 16.0 mph25.7 kmh 29.62 in1003.0 mb 0.00 in0.0 mm 0.00 in0.0 mm 0.01 in0.3 mm
03:45 PM 67.4°F19.7°C 53.5°F11.9°C 61% 7.0 mph SE11.3 kmh SE 18.0 mph29.0 kmh 29.62 in1003.0 mb 0.00 in0.0 mm 0.00 in0.0 mm 0.01 in0.3 mm
03:50 PM 66.9°F19.4°C 53.5°F11.9°C 62% 13.0 mph ESE20.9 kmh ESE 18.0 mph29.0 kmh 29.62 in1003.0 mb 0.00 in0.0 mm 0.00 in0.0 mm 0.01 in0.3 mm
03:55 PM 67.2°F19.6°C 53.3°F11.8°C 61% 16.0 mph ESE25.7 kmh ESE 16.0 mph25.7 kmh 29.62 in1003.0 mb 0.00 in0.0 mm 0.00 in0.0 mm 0.01 in0.3 mm
04:00 PM 67.5°F19.7°C 54.0°F12.2°C 62% 10.0 mph ESE16.1 kmh ESE 20.0 mph32.2 kmh 29.62 in1003.0 mb 0.00 in0.0 mm 0.00 in0.0 mm 0.01 in0.3 mm
04:05 PM 67.5°F19.7°C 52.7°F11.5°C 59% 15.0 mph ESE24.1 kmh ESE 20.0 mph32.2 kmh 29.62 in1003.0 mb 0.00 in0.0 mm 0.00 in0.0 mm 0.01 in0.3 mm
04:10 PM 67.4°F19.7°C 53.5°F11.9°C 61% 14.0 mph ESE22.5 kmh ESE 15.0 mph24.1 kmh 29.63 in1003.4 mb 0.00 in0.0 mm 0.00 in0.0 mm 0.01 in0.3 mm
04:15 PM 67.2°F19.6°C 54.2°F12.3°C 63% 8.0 mph ESE12.9 kmh ESE 18.0 mph29.0 kmh 29.63 in1003.4 mb 0.00 in0.0 mm 0.00 in0.0 mm 0.01 in0.3 mm
04:20 PM 67.6°F19.8°C 53.2°F11.8°C 60% 11.0 mph ESE17.7 kmh ESE 18.0 mph29.0 kmh 29.64 in1003.7 mb 0.00 in0.0 mm 0.00 in0.0 mm 0.01 in0.3 mm
04:25 PM 68.1°F20.1°C 53.3°F11.8°C 59% 15.0 mph ESE24.1 kmh ESE 16.0 mph25.7 kmh 29.64 in1003.7 mb 0.00 in0.0 mm 0.00 in0.0 mm 0.01 in0.3 mm
04:30 PM 68.2°F20.1°C 51.9°F11.1°C 56% 8.0 mph ESE12.9 kmh ESE 16.0 mph25.7 kmh 29.64 in1003.7 mb 0.00 in0.0 mm 0.00 in0.0 mm 0.01 in0.3 mm
04:35 PM 68.1°F20.1°C 52.3°F11.3°C 57% 9.0 mph ESE14.5 kmh ESE 18.0 mph29.0 kmh 29.64 in1003.7 mb 0.00 in0.0 mm 0.00 in0.0 mm 0.01 in0.3 mm
04:40 PM 68.8°F20.4°C 51.5°F10.8°C 54% 5.0 mph SE8.0 kmh SE 5.0 mph8.0 kmh 29.64 in1003.7 mb 0.00 in0.0 mm 0.00 in0.0 mm 0.01 in0.3 mm
04:45 PM 68.1°F20.1°C 52.3°F11.3°C 57% 4.0 mph ESE6.4 kmh ESE 14.0 mph22.5 kmh 29.64 in1003.7 mb 0.00 in0.0 mm 0.00 in0.0 mm 0.01 in0.3 mm
04:50 PM 68.0°F20.0°C 51.7°F10.9°C 56% 10.0 mph SE16.1 kmh SE 17.0 mph27.4 kmh 29.65 in1004.1 mb 0.00 in0.0 mm 0.00 in0.0 mm 0.01 in0.3 mm
04:55 PM 68.5°F20.3°C 51.2°F10.7°C 54% 7.0 mph SE11.3 kmh SE 8.0 mph12.9 kmh 29.65 in1004.1 mb 0.00 in0.0 mm 0.00 in0.0 mm 0.01 in0.3 mm
05:00 PM 68.3°F20.2°C 50.0°F10.0°C 52% 9.0 mph SE14.5 kmh SE 12.0 mph19.3 kmh 29.65 in1004.1 mb 0.00 in0.0 mm 0.00 in0.0 mm 0.01 in0.3 mm
05:05 PM 67.9°F19.9°C 51.6°F10.9°C 56% 5.0 mph SE8.0 kmh SE 13.0 mph20.9 kmh 29.66 in1004.4 mb 0.00 in0.0 mm 0.00 in0.0 mm 0.01 in0.3 mm
05:10 PM 67.7°F19.8°C 51.9°F11.1°C 57% 9.0 mph ESE14.5 kmh ESE 9.0 mph14.5 kmh 29.66 in1004.4 mb 0.00 in0.0 mm 0.00 in0.0 mm 0.01 in0.3 mm
05:15 PM 67.3°F19.6°C 51.6°F10.9°C 57% 9.0 mph SE14.5 kmh SE 17.0 mph27.4 kmh 29.66 in1004.4 mb 0.00 in0.0 mm 0.00 in0.0 mm 0.01 in0.3 mm
05:20 PM 67.6°F19.8°C 51.4°F10.8°C 56% 11.0 mph SE17.7 kmh SE 17.0 mph27.4 kmh 29.66 in1004.4 mb 0.00 in0.0 mm 0.00 in0.0 mm 0.01 in0.3 mm
05:25 PM 68.0°F20.0°C 50.8°F10.4°C 54% 15.0 mph SSE24.1 kmh SSE 16.0 mph25.7 kmh 29.66 in1004.4 mb 0.00 in0.0 mm 0.00 in0.0 mm 0.01 in0.3 mm
05:30 PM 67.9°F19.9°C 50.7°F10.4°C 54% 9.0 mph SSE14.5 kmh SSE 16.0 mph25.7 kmh 29.67 in1004.7 mb 0.00 in0.0 mm 0.00 in0.0 mm 0.01 in0.3 mm
05:35 PM 68.3°F20.2°C 50.0°F10.0°C 52% 12.0 mph ESE19.3 kmh ESE 16.0 mph25.7 kmh 29.67 in1004.7 mb 0.00 in0.0 mm 0.00 in0.0 mm 0.01 in0.3 mm
05:40 PM 68.2°F20.1°C 49.9°F9.9°C 52% 8.0 mph SSE12.9 kmh SSE 8.0 mph12.9 kmh 29.67 in1004.7 mb 0.00 in0.0 mm 0.00 in0.0 mm 0.01 in0.3 mm
05:45 PM 68.4°F20.2°C 50.6°F10.3°C 53% 6.0 mph SSE9.7 kmh SSE 15.0 mph24.1 kmh 29.67 in1004.7 mb 0.00 in0.0 mm 0.00 in0.0 mm 0.01 in0.3 mm
05:50 PM 68.1°F20.1°C 49.3°F9.6°C 51% 11.0 mph ESE17.7 kmh ESE 15.0 mph24.1 kmh 29.67 in1004.7 mb 0.00 in0.0 mm 0.00 in0.0 mm 0.01 in0.3 mm
05:55 PM 68.0°F20.0°C 48.7°F9.3°C 50% 7.0 mph ESE11.3 kmh ESE 7.0 mph11.3 kmh 29.67 in1004.7 mb 0.00 in0.0 mm 0.00 in0.0 mm 0.01 in0.3 mm
06:00 PM 67.9°F19.9°C 48.6°F9.2°C 50% 13.0 mph S20.9 kmh S 14.0 mph22.5 kmh 29.68 in1005.1 mb 0.00 in0.0 mm 0.00 in0.0 mm 0.01 in0.3 mm
06:05 PM 67.9°F19.9°C 47.5°F8.6°C 48% 5.0 mph SE8.0 kmh SE 15.0 mph24.1 kmh 29.68 in1005.1 mb 0.00 in0.0 mm 0.00 in0.0 mm 0.01 in0.3 mm
06:10 PM 67.6°F19.8°C 47.8°F8.8°C 49% 8.0 mph SE12.9 kmh SE 11.0 mph17.7 kmh 29.68 in1005.1 mb 0.00 in0.0 mm 0.00 in0.0 mm 0.01 in0.3 mm
06:15 PM 67.4°F19.7°C 47.6°F8.7°C 49% 8.0 mph ESE12.9 kmh ESE 13.0 mph20.9 kmh 29.68 in1005.1 mb 0.00 in0.0 mm 0.00 in0.0 mm 0.01 in0.3 mm
06:20 PM 67.2°F19.6°C 48.0°F8.9°C 50% 9.0 mph SSE14.5 kmh SSE 13.0 mph20.9 kmh 29.68 in1005.1 mb 0.00 in0.0 mm 0.00 in0.0 mm 0.01 in0.3 mm
06:25 PM 67.0°F19.4°C 47.8°F8.8°C 50% 8.0 mph SSE12.9 kmh SSE 9.0 mph14.5 kmh 29.68 in1005.1 mb 0.00 in0.0 mm 0.00 in0.0 mm 0.01 in0.3 mm
06:30 PM 66.8°F19.3°C 47.6°F8.7°C 50% 6.0 mph SE9.7 kmh SE 16.0 mph25.7 kmh 29.69 in1005.4 mb 0.00 in0.0 mm 0.00 in0.0 mm 0.01 in0.3 mm
06:35 PM 66.7°F19.3°C 48.0°F8.9°C 51% 1.0 mph SSE1.6 kmh SSE 16.0 mph25.7 kmh 29.69 in1005.4 mb 0.00 in0.0 mm 0.00 in0.0 mm 0.01 in0.3 mm
06:40 PM 66.6°F19.2°C 47.9°F8.8°C 51% 4.0 mph SE6.4 kmh SE 4.0 mph6.4 kmh 29.69 in1005.4 mb 0.00 in0.0 mm 0.00 in0.0 mm 0.01 in0.3 mm
06:45 PM 66.4°F19.1°C 48.3°F9.1°C 52% 2.0 mph SE3.2 kmh SE 5.0 mph8.0 kmh 29.69 in1005.4 mb 0.00 in0.0 mm 0.00 in0.0 mm 0.01 in0.3 mm
06:50 PM 66.2°F19.0°C 48.1°F8.9°C 52% 1.0 mph S1.6 kmh S 9.0 mph14.5 kmh 29.69 in1005.4 mb 0.00 in0.0 mm 0.00 in0.0 mm 0.01 in0.3 mm
06:55 PM 66.1°F18.9°C 48.5°F9.2°C 53% 6.0 mph S9.7 kmh S 6.0 mph9.7 kmh 29.69 in1005.4 mb 0.00 in0.0 mm 0.00 in0.0 mm 0.01 in0.3 mm
07:00 PM 65.9°F18.8°C 48.8°F9.3°C 54% 2.0 mph S3.2 kmh S 7.0 mph11.3 kmh 29.70 in1005.8 mb 0.00 in0.0 mm 0.00 in0.0 mm 0.01 in0.3 mm
07:05 PM 65.8°F18.8°C 48.2°F9.0°C 53% 3.0 mph SE4.8 kmh SE 7.0 mph11.3 kmh 29.69 in1005.4 mb 0.00 in0.0 mm 0.00 in0.0 mm 0.01 in0.3 mm
07:10 PM 65.5°F18.6°C 48.4°F9.1°C 54% 3.0 mph SE4.8 kmh SE 3.0 mph4.8 kmh 29.70 in1005.8 mb 0.00 in0.0 mm 0.00 in0.0 mm 0.01 in0.3 mm
07:15 PM 65.4°F18.6°C 47.8°F8.8°C 53% 5.0 mph SE8.0 kmh SE 9.0 mph14.5 kmh 29.69 in1005.4 mb 0.00 in0.0 mm 0.00 in0.0 mm 0.01 in0.3 mm
07:20 PM 65.2°F18.4°C 48.2°F9.0°C 54% 1.0 mph SE1.6 kmh SE 9.0 mph14.5 kmh 29.69 in1005.4 mb 0.00 in0.0 mm 0.00 in0.0 mm 0.01 in0.3 mm
07:25 PM 65.1°F18.4°C 48.1°F8.9°C 54% 5.0 mph SE8.0 kmh SE 5.0 mph8.0 kmh 29.69 in1005.4 mb 0.00 in0.0 mm 0.00 in0.0 mm 0.01 in0.3 mm
07:30 PM 64.9°F18.3°C 48.4°F9.1°C 55% Calm Calm 8.0 mph12.9 kmh 29.69 in1005.4 mb 0.00 in0.0 mm 0.00 in0.0 mm 0.01 in0.3 mm
07:35 PM 64.7°F18.2°C 48.2°F9.0°C 55% 2.0 mph SE3.2 kmh SE 8.0 mph12.9 kmh 29.70 in1005.8 mb 0.00 in0.0 mm 0.00 in0.0 mm 0.01 in0.3 mm
07:40 PM 64.5°F18.1°C 48.0°F8.9°C 55% Calm Calm -- 29.70 in1005.8 mb 0.00 in0.0 mm 0.00 in0.0 mm 0.01 in0.3 mm
07:45 PM 64.4°F18.0°C 47.9°F8.8°C 55% Calm Calm 3.0 mph4.8 kmh 29.70 in1005.8 mb 0.00 in0.0 mm 0.00 in0.0 mm 0.01 in0.3 mm
07:50 PM 64.3°F17.9°C 47.8°F8.8°C 55% Calm Calm 3.0 mph4.8 kmh 29.70 in1005.8 mb 0.00 in0.0 mm 0.00 in0.0 mm 0.01 in0.3 mm
07:55 PM 64.1°F17.8°C 47.6°F8.7°C 55% 2.0 mph SE3.2 kmh SE 3.0 mph4.8 kmh 29.71 in1006.1 mb 0.00 in0.0 mm 0.00 in0.0 mm 0.01 in0.3 mm
08:00 PM 64.0°F17.8°C 48.5°F9.2°C 57% 1.0 mph SE1.6 kmh SE 4.0 mph6.4 kmh 29.71 in1006.1 mb 0.00 in0.0 mm 0.00 in0.0 mm 0.01 in0.3 mm
08:05 PM 64.0°F17.8°C 48.5°F9.2°C 57% Calm Calm 4.0 mph6.4 kmh 29.70 in1005.8 mb 0.00 in0.0 mm 0.00 in0.0 mm 0.01 in0.3 mm
08:10 PM 63.8°F17.7°C 48.3°F9.1°C 57% Calm Calm -- 29.71 in1006.1 mb 0.00 in0.0 mm 0.00 in0.0 mm 0.01 in0.3 mm
08:15 PM 63.7°F17.6°C 48.7°F9.3°C 58% 1.0 mph SE1.6 kmh SE 3.0 mph4.8 kmh 29.71 in1006.1 mb 0.00 in0.0 mm 0.00 in0.0 mm 0.01 in0.3 mm
08:20 PM 63.6°F17.6°C 48.6°F9.2°C 58% 1.0 mph SE1.6 kmh SE 3.0 mph4.8 kmh 29.71 in1006.1 mb 0.00 in0.0 mm 0.00 in0.0 mm 0.01 in0.3 mm
08:25 PM 63.5°F17.5°C 48.0°F8.9°C 57% 1.0 mph SE1.6 kmh SE 2.0 mph3.2 kmh 29.72 in1006.4 mb 0.00 in0.0 mm 0.00 in0.0 mm 0.01 in0.3 mm
08:30 PM 63.4°F17.4°C 48.4°F9.1°C 58% Calm Calm 3.0 mph4.8 kmh 29.72 in1006.4 mb 0.00 in0.0 mm 0.00 in0.0 mm 0.01 in0.3 mm
08:35 PM 63.2°F17.3°C 48.2°F9.0°C 58% Calm Calm 3.0 mph4.8 kmh 29.72 in1006.4 mb 0.00 in0.0 mm 0.00 in0.0 mm 0.01 in0.3 mm
08:40 PM 63.1°F17.3°C 48.6°F9.2°C 59% Calm Calm -- 29.73 in1006.8 mb 0.00 in0.0 mm 0.00 in0.0 mm 0.01 in0.3 mm
08:45 PM 63.0°F17.2°C 48.5°F9.2°C 59% Calm Calm -- 29.73 in1006.8 mb 0.00 in0.0 mm 0.00 in0.0 mm 0.01 in0.3 mm
08:50 PM 62.9°F17.2°C 48.4°F9.1°C 59% Calm Calm -- 29.73 in1006.8 mb 0.00 in0.0 mm 0.00 in0.0 mm 0.01 in0.3 mm
08:55 PM 62.8°F17.1°C 49.2°F9.6°C 61% Calm Calm -- 29.73 in1006.8 mb 0.00 in0.0 mm 0.00 in0.0 mm 0.01 in0.3 mm
09:00 PM 62.7°F17.1°C 49.9°F9.9°C 63% Calm Calm -- 29.73 in1006.8 mb 0.00 in0.0 mm 0.00 in0.0 mm 0.01 in0.3 mm
09:05 PM 62.6°F17.0°C 51.1°F10.6°C 66% Calm Calm -- 29.73 in1006.8 mb 0.00 in0.0 mm 0.00 in0.0 mm 0.01 in0.3 mm
09:10 PM 62.5°F16.9°C 50.2°F10.1°C 64% Calm Calm -- 29.73 in1006.8 mb 0.00 in0.0 mm 0.00 in0.0 mm 0.01 in0.3 mm
09:15 PM 62.2°F16.8°C 48.6°F9.2°C 61% Calm Calm -- 29.73 in1006.8 mb 0.00 in0.0 mm 0.00 in0.0 mm 0.01 in0.3 mm
09:20 PM 62.1°F16.7°C 48.5°F9.2°C 61% Calm Calm -- 29.74 in1007.1 mb 0.00 in0.0 mm 0.00 in0.0 mm 0.01 in0.3 mm
09:25 PM 61.9°F16.6°C 49.2°F9.6°C 63% Calm Calm -- 29.74 in1007.1 mb 0.00 in0.0 mm 0.00 in0.0 mm 0.01 in0.3 mm
09:30 PM 61.7°F16.5°C 49.4°F9.7°C 64% 3.0 mph SE4.8 kmh SE 8.0 mph12.9 kmh 29.74 in1007.1 mb 0.00 in0.0 mm 0.00 in0.0 mm 0.01 in0.3 mm
09:35 PM 61.7°F16.5°C 49.4°F9.7°C 64% 7.0 mph SSE11.3 kmh SSE 9.0 mph14.5 kmh 29.74 in1007.1 mb 0.00 in0.0 mm 0.00 in0.0 mm 0.01 in0.3 mm
09:40 PM 61.7°F16.5°C 48.6°F9.2°C 62% 3.0 mph S4.8 kmh S 4.0 mph6.4 kmh 29.74 in1007.1 mb 0.00 in0.0 mm 0.00 in0.0 mm 0.01 in0.3 mm
09:45 PM 61.7°F16.5°C 49.0°F9.4°C 63% 1.0 mph S1.6 kmh S 7.0 mph11.3 kmh 29.75 in1007.5 mb 0.00 in0.0 mm 0.00 in0.0 mm 0.01 in0.3 mm
09:50 PM 61.7°F16.5°C 49.0°F9.4°C 63% 4.0 mph S6.4 kmh S 11.0 mph17.7 kmh 29.75 in1007.5 mb 0.00 in0.0 mm 0.00 in0.0 mm 0.01 in0.3 mm
09:55 PM 61.7°F16.5°C 49.0°F9.4°C 63% 3.0 mph S4.8 kmh S 3.0 mph4.8 kmh 29.75 in1007.5 mb 0.00 in0.0 mm 0.00 in0.0 mm 0.01 in0.3 mm
10:00 PM 61.5°F16.4°C 49.2°F9.6°C 64% 4.0 mph S6.4 kmh S 7.0 mph11.3 kmh 29.75 in1007.5 mb 0.00 in0.0 mm 0.00 in0.0 mm 0.01 in0.3 mm
10:05 PM 61.4°F16.3°C 49.1°F9.5°C 64% 2.0 mph S3.2 kmh S 7.0 mph11.3 kmh 29.75 in1007.5 mb 0.00 in0.0 mm 0.00 in0.0 mm 0.01 in0.3 mm
10:10 PM 61.3°F16.3°C 49.0°F9.4°C 64% 5.0 mph S8.0 kmh S 5.0 mph8.0 kmh 29.75 in1007.5 mb 0.00 in0.0 mm 0.00 in0.0 mm 0.01 in0.3 mm
10:15 PM 61.1°F16.2°C 48.8°F9.3°C 64% 2.0 mph S3.2 kmh S 7.0 mph11.3 kmh 29.76 in1007.8 mb 0.00 in0.0 mm 0.00 in0.0 mm 0.01 in0.3 mm
10:20 PM 61.0°F16.1°C 49.2°F9.6°C 65% 3.0 mph S4.8 kmh S 7.0 mph11.3 kmh 29.76 in1007.8 mb 0.00 in0.0 mm 0.00 in0.0 mm 0.01 in0.3 mm
10:25 PM 61.0°F16.1°C 48.8°F9.3°C 64% 3.0 mph S4.8 kmh S 3.0 mph4.8 kmh 29.76 in1007.8 mb 0.00 in0.0 mm 0.00 in0.0 mm 0.01 in0.3 mm
10:30 PM 60.9°F16.1°C 48.7°F9.3°C 64% 3.0 mph S4.8 kmh S 8.0 mph12.9 kmh 29.77 in1008.1 mb 0.00 in0.0 mm 0.00 in0.0 mm 0.01 in0.3 mm
10:35 PM 60.8°F16.0°C 48.6°F9.2°C 64% 3.0 mph S4.8 kmh S 8.0 mph12.9 kmh 29.77 in1008.1 mb 0.00 in0.0 mm 0.00 in0.0 mm 0.01 in0.3 mm
10:40 PM 60.7°F15.9°C 48.5°F9.2°C 64% 2.0 mph S3.2 kmh S 2.0 mph3.2 kmh 29.77 in1008.1 mb 0.00 in0.0 mm 0.00 in0.0 mm 0.01 in0.3 mm
10:45 PM 60.7°F15.9°C 48.5°F9.2°C 64% 1.0 mph S1.6 kmh S 6.0 mph9.7 kmh 29.77 in1008.1 mb 0.00 in0.0 mm 0.00 in0.0 mm 0.01 in0.3 mm
10:50 PM 60.6°F15.9°C 48.4°F9.1°C 64% 4.0 mph S6.4 kmh S 9.0 mph14.5 kmh 29.77 in1008.1 mb 0.00 in0.0 mm 0.00 in0.0 mm 0.01 in0.3 mm
10:55 PM 60.5°F15.8°C 48.7°F9.3°C 65% 1.0 mph S1.6 kmh S 1.0 mph1.6 kmh 29.77 in1008.1 mb 0.00 in0.0 mm 0.00 in0.0 mm 0.01 in0.3 mm
11:00 PM 60.5°F15.8°C 48.7°F9.3°C 65% 4.0 mph S6.4 kmh S 4.0 mph6.4 kmh 29.77 in1008.1 mb 0.00 in0.0 mm 0.00 in0.0 mm 0.01 in0.3 mm
11:05 PM 60.4°F15.8°C 48.6°F9.2°C 65% 4.0 mph S6.4 kmh S 5.0 mph8.0 kmh 29.77 in1008.1 mb 0.00 in0.0 mm 0.00 in0.0 mm 0.01 in0.3 mm
11:10 PM 60.3°F15.7°C 48.5°F9.2°C 65% Calm Calm 1.0 mph1.6 kmh 29.78 in1008.5 mb 0.00 in0.0 mm 0.00 in0.0 mm 0.01 in0.3 mm
11:15 PM 60.3°F15.7°C 48.5°F9.2°C 65% 1.0 mph S1.6 kmh S 4.0 mph6.4 kmh 29.78 in1008.5 mb 0.00 in0.0 mm 0.00 in0.0 mm 0.01 in0.3 mm
11:20 PM 60.2°F15.7°C 48.8°F9.3°C 66% 1.0 mph S1.6 kmh S 5.0 mph8.0 kmh 29.78 in1008.5 mb 0.00 in0.0 mm 0.00 in0.0 mm 0.01 in0.3 mm
11:25 PM 60.1°F15.6°C 48.7°F9.3°C 66% 2.0 mph S3.2 kmh S 2.0 mph3.2 kmh 29.78 in1008.5 mb 0.00 in0.0 mm 0.00 in0.0 mm 0.01 in0.3 mm
11:30 PM 60.0°F15.6°C 48.6°F9.2°C 66% 2.0 mph S3.2 kmh S 5.0 mph8.0 kmh 29.78 in1008.5 mb 0.00 in0.0 mm 0.00 in0.0 mm 0.01 in0.3 mm
11:35 PM 60.0°F15.6°C 48.6°F9.2°C 66% 1.0 mph S1.6 kmh S 5.0 mph8.0 kmh 29.78 in1008.5 mb 0.00 in0.0 mm 0.00 in0.0 mm 0.01 in0.3 mm
11:40 PM 59.9°F15.5°C 48.5°F9.2°C 66% 8.0 mph S12.9 kmh S 8.0 mph12.9 kmh 29.78 in1008.5 mb 0.00 in0.0 mm 0.00 in0.0 mm 0.01 in0.3 mm
11:45 PM 59.9°F15.5°C 48.5°F9.2°C 66% 4.0 mph S6.4 kmh S 8.0 mph12.9 kmh 29.78 in1008.5 mb 0.00 in0.0 mm 0.00 in0.0 mm 0.01 in0.3 mm
11:50 PM 59.7°F15.4°C 48.3°F9.1°C 66% 3.0 mph S4.8 kmh S 8.0 mph12.9 kmh 29.79 in1008.8 mb 0.00 in0.0 mm 0.00 in0.0 mm 0.01 in0.3 mm
11:55 PM 59.7°F15.4°C 48.7°F9.3°C 67% 4.0 mph S6.4 kmh S 4.0 mph6.4 kmh 29.78 in1008.5 mb 0.00 in0.0 mm 0.00 in0.0 mm 0.01 in0.3 mm